sensor_id;sensor_type;location;lat;lon;timestamp;temperature;humidity
64634;DHT22;51043;52.406;9.690;2024-01-11T00:02:00;-8.80;99.90
64634;DHT22;51043;52.406;9.690;2024-01-11T00:04:28;-8.80;99.90
64634;DHT22;51043;52.406;9.690;2024-01-11T00:06:57;-8.80;99.90
64634;DHT22;51043;52.406;9.690;2024-01-11T00:09:25;-8.90;99.90
64634;DHT22;51043;52.406;9.690;2024-01-11T00:11:53;-8.90;99.90
64634;DHT22;51043;52.406;9.690;2024-01-11T00:14:22;-8.90;99.90
64634;DHT22;51043;52.406;9.690;2024-01-11T00:16:50;-8.80;99.90
64634;DHT22;51043;52.406;9.690;2024-01-11T00:19:19;-8.70;99.90
64634;DHT22;51043;52.406;9.690;2024-01-11T00:21:47;-8.70;99.90
64634;DHT22;51043;52.406;9.690;2024-01-11T00:24:15;-8.70;99.90
64634;DHT22;51043;52.406;9.690;2024-01-11T00:26:43;-8.50;99.90
64634;DHT22;51043;52.406;9.690;2024-01-11T00:29:13;-8.70;99.90
64634;DHT22;51043;52.406;9.690;2024-01-11T00:31:43;-8.80;99.90
64634;DHT22;51043;52.406;9.690;2024-01-11T00:34:16;-8.80;99.90
64634;DHT22;51043;52.406;9.690;2024-01-11T00:36:45;-8.80;99.90
64634;DHT22;51043;52.406;9.690;2024-01-11T00:39:19;-8.90;99.90
64634;DHT22;51043;52.406;9.690;2024-01-11T00:41:47;-8.90;99.90
64634;DHT22;51043;52.406;9.690;2024-01-11T00:44:19;-8.90;99.90
64634;DHT22;51043;52.406;9.690;2024-01-11T00:46:48;-8.90;99.90
64634;DHT22;51043;52.406;9.690;2024-01-11T00:49:16;-8.90;99.90
64634;DHT22;51043;52.406;9.690;2024-01-11T00:51:45;-8.90;99.90
64634;DHT22;51043;52.406;9.690;2024-01-11T00:54:14;-8.90;99.90
64634;DHT22;51043;52.406;9.690;2024-01-11T00:56:42;-8.90;99.90
64634;DHT22;51043;52.406;9.690;2024-01-11T00:59:10;-8.80;99.90
64634;DHT22;51043;52.406;9.690;2024-01-11T01:01:38;-8.80;99.90
64634;DHT22;51043;52.406;9.690;2024-01-11T01:04:07;-8.80;99.90
64634;DHT22;51043;52.406;9.690;2024-01-11T01:06:35;-8.80;99.90
64634;DHT22;51043;52.406;9.690;2024-01-11T01:09:03;-9.00;99.90
64634;DHT22;51043;52.406;9.690;2024-01-11T01:11:32;-8.80;99.90
64634;DHT22;51043;52.406;9.690;2024-01-11T01:14:00;-8.80;99.90
64634;DHT22;51043;52.406;9.690;2024-01-11T01:16:29;-8.80;99.90
64634;DHT22;51043;52.406;9.690;2024-01-11T01:18:58;-8.80;99.90
64634;DHT22;51043;52.406;9.690;2024-01-11T01:21:27;-8.90;99.90
64634;DHT22;51043;52.406;9.690;2024-01-11T01:23:55;-8.90;99.90
64634;DHT22;51043;52.406;9.690;2024-01-11T01:26:23;-8.90;99.90
64634;DHT22;51043;52.406;9.690;2024-01-11T01:28:52;-9.00;99.90
64634;DHT22;51043;52.406;9.690;2024-01-11T01:31:21;-9.00;99.90
64634;DHT22;51043;52.406;9.690;2024-01-11T01:33:49;-9.10;99.90
64634;DHT22;51043;52.406;9.690;2024-01-11T01:36:17;-9.10;99.90
64634;DHT22;51043;52.406;9.690;2024-01-11T01:38:49;-9.10;99.90
64634;DHT22;51043;52.406;9.690;2024-01-11T01:41:18;-9.10;99.90
64634;DHT22;51043;52.406;9.690;2024-01-11T01:43:48;-9.10;99.90
64634;DHT22;51043;52.406;9.690;2024-01-11T01:46:21;-9.00;99.90
64634;DHT22;51043;52.406;9.690;2024-01-11T01:48:50;-9.00;99.90
64634;DHT22;51043;52.406;9.690;2024-01-11T01:51:20;-9.10;99.90
64634;DHT22;51043;52.406;9.690;2024-01-11T01:53:53;-9.10;99.90
64634;DHT22;51043;52.406;9.690;2024-01-11T01:56:21;-9.20;99.90
64634;DHT22;51043;52.406;9.690;2024-01-11T01:58:51;-9.20;99.90
64634;DHT22;51043;52.406;9.690;2024-01-11T02:01:20;-9.20;99.90
64634;DHT22;51043;52.406;9.690;2024-01-11T02:03:50;-9.30;99.90
64634;DHT22;51043;52.406;9.690;2024-01-11T02:06:23;-9.30;99.90
64634;DHT22;51043;52.406;9.690;2024-01-11T02:08:55;-9.20;99.90
64634;DHT22;51043;52.406;9.690;2024-01-11T02:11:24;-9.20;99.90
64634;DHT22;51043;52.406;9.690;2024-01-11T02:13:53;-9.30;99.90
64634;DHT22;51043;52.406;9.690;2024-01-11T02:16:22;-9.30;99.90
64634;DHT22;51043;52.406;9.690;2024-01-11T02:18:50;-9.30;99.90
64634;DHT22;51043;52.406;9.690;2024-01-11T02:21:23;-9.40;99.90
64634;DHT22;51043;52.406;9.690;2024-01-11T02:24:02;-9.30;99.90
64634;DHT22;51043;52.406;9.690;2024-01-11T02:26:31;-9.30;99.90
64634;DHT22;51043;52.406;9.690;2024-01-11T02:28:59;-9.30;99.90
64634;DHT22;51043;52.406;9.690;2024-01-11T02:31:28;-9.30;99.90
64634;DHT22;51043;52.406;9.690;2024-01-11T02:33:57;-9.30;99.90
64634;DHT22;51043;52.406;9.690;2024-01-11T02:36:25;-9.20;99.90
64634;DHT22;51043;52.406;9.690;2024-01-11T02:38:56;-9.20;99.90
64634;DHT22;51043;52.406;9.690;2024-01-11T02:41:24;-9.20;99.90
64634;DHT22;51043;52.406;9.690;2024-01-11T02:43:53;-9.20;99.90
64634;DHT22;51043;52.406;9.690;2024-01-11T02:46:22;-9.20;99.90
64634;DHT22;51043;52.406;9.690;2024-01-11T02:48:50;-8.90;99.90
64634;DHT22;51043;52.406;9.690;2024-01-11T02:51:19;-8.90;99.90
64634;DHT22;51043;52.406;9.690;2024-01-11T02:53:48;-9.00;99.90
64634;DHT22;51043;52.406;9.690;2024-01-11T02:56:18;-9.10;99.90
64634;DHT22;51043;52.406;9.690;2024-01-11T02:58:46;-9.20;99.90
64634;DHT22;51043;52.406;9.690;2024-01-11T03:01:16;-9.30;99.90
64634;DHT22;51043;52.406;9.690;2024-01-11T03:03:44;-9.00;99.90
64634;DHT22;51043;52.406;9.690;2024-01-11T03:06:14;-9.40;99.90
64634;DHT22;51043;52.406;9.690;2024-01-11T03:08:44;-9.40;99.90
64634;DHT22;51043;52.406;9.690;2024-01-11T03:11:12;-9.40;99.90
64634;DHT22;51043;52.406;9.690;2024-01-11T03:13:42;-9.40;99.90
64634;DHT22;51043;52.406;9.690;2024-01-11T03:16:10;-9.40;99.90
64634;DHT22;51043;52.406;9.690;2024-01-11T03:18:38;-9.30;99.90
64634;DHT22;51043;52.406;9.690;2024-01-11T03:21:07;-9.30;99.90
64634;DHT22;51043;52.406;9.690;2024-01-11T03:23:35;-9.30;99.90
64634;DHT22;51043;52.406;9.690;2024-01-11T03:26:03;-9.50;99.90
64634;DHT22;51043;52.406;9.690;2024-01-11T03:28:31;-9.30;99.90
64634;DHT22;51043;52.406;9.690;2024-01-11T03:31:00;-9.70;99.90
64634;DHT22;51043;52.406;9.690;2024-01-11T03:33:28;-9.40;99.90
64634;DHT22;51043;52.406;9.690;2024-01-11T03:35:58;-9.40;99.90
64634;DHT22;51043;52.406;9.690;2024-01-11T03:38:28;-9.40;99.90
64634;DHT22;51043;52.406;9.690;2024-01-11T03:40:57;-9.40;99.90
64634;DHT22;51043;52.406;9.690;2024-01-11T03:43:25;-9.40;99.90
64634;DHT22;51043;52.406;9.690;2024-01-11T03:45:55;-9.50;99.90
64634;DHT22;51043;52.406;9.690;2024-01-11T03:48:29;-9.50;99.90
64634;DHT22;51043;52.406;9.690;2024-01-11T03:50:57;-9.40;99.90
64634;DHT22;51043;52.406;9.690;2024-01-11T03:53:25;-9.30;99.90
64634;DHT22;51043;52.406;9.690;2024-01-11T03:55:53;-9.20;99.90
64634;DHT22;51043;52.406;9.690;2024-01-11T03:58:22;-9.20;99.90
64634;DHT22;51043;52.406;9.690;2024-01-11T04:00:52;-9.20;99.90
64634;DHT22;51043;52.406;9.690;2024-01-11T04:03:20;-9.30;99.90
64634;DHT22;51043;52.406;9.690;2024-01-11T04:05:50;-9.30;99.90
64634;DHT22;51043;52.406;9.690;2024-01-11T04:08:17;-9.30;99.90
64634;DHT22;51043;52.406;9.690;2024-01-11T04:10:46;-9.30;99.90
64634;DHT22;51043;52.406;9.690;2024-01-11T04:13:16;-9.30;99.90
64634;DHT22;51043;52.406;9.690;2024-01-11T04:15:44;-9.30;99.90
64634;DHT22;51043;52.406;9.690;2024-01-11T04:18:13;-9.30;99.90
64634;DHT22;51043;52.406;9.690;2024-01-11T04:20:43;-9.30;99.90
64634;DHT22;51043;52.406;9.690;2024-01-11T04:23:16;-9.30;99.90
64634;DHT22;51043;52.406;9.690;2024-01-11T04:25:45;-9.40;99.90
64634;DHT22;51043;52.406;9.690;2024-01-11T04:28:15;-9.40;99.90
64634;DHT22;51043;52.406;9.690;2024-01-11T04:30:44;-9.40;99.90
64634;DHT22;51043;52.406;9.690;2024-01-11T04:33:15;-9.40;99.90
64634;DHT22;51043;52.406;9.690;2024-01-11T04:35:43;-9.40;99.90
64634;DHT22;51043;52.406;9.690;2024-01-11T04:38:14;-9.50;99.90
64634;DHT22;51043;52.406;9.690;2024-01-11T04:40:43;-9.40;99.90
64634;DHT22;51043;52.406;9.690;2024-01-11T04:43:11;-9.40;99.90
64634;DHT22;51043;52.406;9.690;2024-01-11T04:45:39;-9.30;99.90
64634;DHT22;51043;52.406;9.690;2024-01-11T04:48:07;-9.40;99.90
64634;DHT22;51043;52.406;9.690;2024-01-11T04:50:35;-9.40;99.90
64634;DHT22;51043;52.406;9.690;2024-01-11T04:53:03;-9.40;99.90
64634;DHT22;51043;52.406;9.690;2024-01-11T04:55:33;-9.40;99.90
64634;DHT22;51043;52.406;9.690;2024-01-11T04:58:01;-9.50;99.90
64634;DHT22;51043;52.406;9.690;2024-01-11T05:00:29;-9.50;99.90
64634;DHT22;51043;52.406;9.690;2024-01-11T05:02:57;-9.50;99.90
64634;DHT22;51043;52.406;9.690;2024-01-11T05:05:25;-9.50;99.90
64634;DHT22;51043;52.406;9.690;2024-01-11T05:07:53;-9.30;99.90
64634;DHT22;51043;52.406;9.690;2024-01-11T05:10:21;-9.30;99.90
64634;DHT22;51043;52.406;9.690;2024-01-11T05:12:51;-9.20;99.90
64634;DHT22;51043;52.406;9.690;2024-01-11T05:15:19;-9.20;99.90
64634;DHT22;51043;52.406;9.690;2024-01-11T05:17:47;-9.20;99.90
64634;DHT22;51043;52.406;9.690;2024-01-11T05:20:17;-9.10;99.90
64634;DHT22;51043;52.406;9.690;2024-01-11T05:22:46;-9.00;99.90
64634;DHT22;51043;52.406;9.690;2024-01-11T05:25:14;-9.00;99.90
64634;DHT22;51043;52.406;9.690;2024-01-11T05:27:41;-8.90;99.90
64634;DHT22;51043;52.406;9.690;2024-01-11T05:30:11;-9.10;99.90
64634;DHT22;51043;52.406;9.690;2024-01-11T05:32:40;-8.90;99.90
64634;DHT22;51043;52.406;9.690;2024-01-11T05:35:08;-9.10;99.90
64634;DHT22;51043;52.406;9.690;2024-01-11T05:37:37;-9.20;99.90
64634;DHT22;51043;52.406;9.690;2024-01-11T05:40:06;-8.80;99.90
64634;DHT22;51043;52.406;9.690;2024-01-11T05:42:34;-9.20;99.90
64634;DHT22;51043;52.406;9.690;2024-01-11T05:45:04;-9.20;99.90
64634;DHT22;51043;52.406;9.690;2024-01-11T05:47:34;-9.30;99.90
64634;DHT22;51043;52.406;9.690;2024-01-11T05:50:05;-9.40;99.90
64634;DHT22;51043;52.406;9.690;2024-01-11T05:52:34;-9.40;99.90
64634;DHT22;51043;52.406;9.690;2024-01-11T05:55:03;-9.20;99.90
64634;DHT22;51043;52.406;9.690;2024-01-11T05:57:34;-9.00;99.90
64634;DHT22;51043;52.406;9.690;2024-01-11T06:00:04;-9.10;99.90
64634;DHT22;51043;52.406;9.690;2024-01-11T06:02:36;-9.10;99.90
64634;DHT22;51043;52.406;9.690;2024-01-11T06:05:05;-9.10;99.90
64634;DHT22;51043;52.406;9.690;2024-01-11T06:07:35;-9.20;99.90
64634;DHT22;51043;52.406;9.690;2024-01-11T06:10:04;-9.20;99.90
64634;DHT22;51043;52.406;9.690;2024-01-11T06:12:32;-9.20;99.90
64634;DHT22;51043;52.406;9.690;2024-01-11T06:15:01;-9.70;99.90
64634;DHT22;51043;52.406;9.690;2024-01-11T06:17:29;-9.20;99.90
64634;DHT22;51043;52.406;9.690;2024-01-11T06:19:59;-9.10;99.90
64634;DHT22;51043;52.406;9.690;2024-01-11T06:22:28;-9.10;99.90
64634;DHT22;51043;52.406;9.690;2024-01-11T06:24:59;-9.00;99.90
64634;DHT22;51043;52.406;9.690;2024-01-11T06:27:30;-9.00;99.90
64634;DHT22;51043;52.406;9.690;2024-01-11T06:29:58;-9.00;99.90
64634;DHT22;51043;52.406;9.690;2024-01-11T06:32:29;-9.10;99.90
64634;DHT22;51043;52.406;9.690;2024-01-11T06:34:59;-9.10;99.90
64634;DHT22;51043;52.406;9.690;2024-01-11T06:37:28;-9.00;99.90
64634;DHT22;51043;52.406;9.690;2024-01-11T06:39:57;-8.40;99.90
64634;DHT22;51043;52.406;9.690;2024-01-11T06:42:25;-8.80;99.90
64634;DHT22;51043;52.406;9.690;2024-01-11T06:44:53;-8.80;99.90
64634;DHT22;51043;52.406;9.690;2024-01-11T06:47:21;-8.70;99.90
64634;DHT22;51043;52.406;9.690;2024-01-11T06:49:49;-8.70;99.90
64634;DHT22;51043;52.406;9.690;2024-01-11T06:52:21;-8.70;99.90
64634;DHT22;51043;52.406;9.690;2024-01-11T06:54:49;-8.60;99.90
64634;DHT22;51043;52.406;9.690;2024-01-11T06:57:18;-8.50;99.90
64634;DHT22;51043;52.406;9.690;2024-01-11T06:59:46;-8.30;99.90
64634;DHT22;51043;52.406;9.690;2024-01-11T07:02:18;-8.20;99.90
64634;DHT22;51043;52.406;9.690;2024-01-11T07:04:48;-8.30;99.90
64634;DHT22;51043;52.406;9.690;2024-01-11T07:07:18;-8.20;99.90
64634;DHT22;51043;52.406;9.690;2024-01-11T07:09:47;-8.10;99.90
64634;DHT22;51043;52.406;9.690;2024-01-11T07:12:16;-8.10;99.90
64634;DHT22;51043;52.406;9.690;2024-01-11T07:14:44;-8.10;99.90
64634;DHT22;51043;52.406;9.690;2024-01-11T07:17:14;-8.30;99.90
64634;DHT22;51043;52.406;9.690;2024-01-11T07:19:42;-8.30;99.90
64634;DHT22;51043;52.406;9.690;2024-01-11T07:22:10;-8.30;99.90
64634;DHT22;51043;52.406;9.690;2024-01-11T07:24:43;-8.30;99.90
64634;DHT22;51043;52.406;9.690;2024-01-11T07:27:22;-8.10;99.90
64634;DHT22;51043;52.406;9.690;2024-01-11T07:29:52;-8.30;99.90
64634;DHT22;51043;52.406;9.690;2024-01-11T07:32:21;-8.40;99.90
64634;DHT22;51043;52.406;9.690;2024-01-11T07:34:51;-8.20;99.90
64634;DHT22;51043;52.406;9.690;2024-01-11T07:37:19;-8.00;99.90
64634;DHT22;51043;52.406;9.690;2024-01-11T07:39:47;-7.90;99.90
64634;DHT22;51043;52.406;9.690;2024-01-11T07:42:16;-7.80;99.90
64634;DHT22;51043;52.406;9.690;2024-01-11T07:44:47;-7.80;99.90
64634;DHT22;51043;52.406;9.690;2024-01-11T07:47:18;-7.70;99.90
64634;DHT22;51043;52.406;9.690;2024-01-11T07:49:46;-7.70;99.90
64634;DHT22;51043;52.406;9.690;2024-01-11T07:52:14;-7.60;99.90
64634;DHT22;51043;52.406;9.690;2024-01-11T07:54:44;-7.50;99.90
64634;DHT22;51043;52.406;9.690;2024-01-11T07:57:15;-7.50;99.90
64634;DHT22;51043;52.406;9.690;2024-01-11T07:59:43;-7.50;99.90
64634;DHT22;51043;52.406;9.690;2024-01-11T08:02:14;-7.30;99.90
64634;DHT22;51043;52.406;9.690;2024-01-11T08:04:43;-7.30;99.90
64634;DHT22;51043;52.406;9.690;2024-01-11T08:07:13;-7.20;99.90
64634;DHT22;51043;52.406;9.690;2024-01-11T08:09:43;-7.20;99.90
64634;DHT22;51043;52.406;9.690;2024-01-11T08:12:12;-7.20;99.90
64634;DHT22;51043;52.406;9.690;2024-01-11T08:14:41;-7.10;99.90
64634;DHT22;51043;52.406;9.690;2024-01-11T08:17:09;-7.10;99.90
64634;DHT22;51043;52.406;9.690;2024-01-11T08:19:39;-7.00;99.90
64634;DHT22;51043;52.406;9.690;2024-01-11T08:22:09;-7.00;99.90
64634;DHT22;51043;52.406;9.690;2024-01-11T08:24:38;-7.00;99.90
64634;DHT22;51043;52.406;9.690;2024-01-11T08:31:02;-6.90;99.90
64634;DHT22;51043;52.406;9.690;2024-01-11T08:33:31;-7.00;99.90
64634;DHT22;51043;52.406;9.690;2024-01-11T08:36:01;-6.70;99.90
64634;DHT22;51043;52.406;9.690;2024-01-11T08:38:30;-6.60;99.90
64634;DHT22;51043;52.406;9.690;2024-01-11T08:40:58;-6.50;99.90
64634;DHT22;51043;52.406;9.690;2024-01-11T08:43:27;-6.50;99.90
64634;DHT22;51043;52.406;9.690;2024-01-11T08:45:55;-6.30;99.90
64634;DHT22;51043;52.406;9.690;2024-01-11T08:48:23;-6.10;99.90
64634;DHT22;51043;52.406;9.690;2024-01-11T08:50:52;-6.00;99.90
64634;DHT22;51043;52.406;9.690;2024-01-11T08:53:22;-5.90;99.90
64634;DHT22;51043;52.406;9.690;2024-01-11T08:55:50;-5.80;99.90
64634;DHT22;51043;52.406;9.690;2024-01-11T08:58:21;-5.70;99.90
64634;DHT22;51043;52.406;9.690;2024-01-11T09:00:50;-5.50;99.90
64634;DHT22;51043;52.406;9.690;2024-01-11T09:03:19;-5.50;99.90
64634;DHT22;51043;52.406;9.690;2024-01-11T09:05:47;-5.40;99.90
64634;DHT22;51043;52.406;9.690;2024-01-11T09:08:15;-5.40;99.90
64634;DHT22;51043;52.406;9.690;2024-01-11T09:10:44;-5.30;99.90
64634;DHT22;51043;52.406;9.690;2024-01-11T09:13:13;-5.10;99.90
64634;DHT22;51043;52.406;9.690;2024-01-11T09:15:42;-5.30;99.90
64634;DHT22;51043;52.406;9.690;2024-01-11T09:18:10;-5.20;99.90
64634;DHT22;51043;52.406;9.690;2024-01-11T09:20:38;-5.20;99.90
64634;DHT22;51043;52.406;9.690;2024-01-11T09:23:08;-5.20;99.90
64634;DHT22;51043;52.406;9.690;2024-01-11T09:25:37;-5.10;99.90
64634;DHT22;51043;52.406;9.690;2024-01-11T09:28:06;-5.10;99.90
64634;DHT22;51043;52.406;9.690;2024-01-11T09:30:35;-5.10;99.90
64634;DHT22;51043;52.406;9.690;2024-01-11T09:33:04;-5.10;99.90
64634;DHT22;51043;52.406;9.690;2024-01-11T09:35:33;-5.00;99.90
64634;DHT22;51043;52.406;9.690;2024-01-11T09:38:01;-4.80;99.90
64634;DHT22;51043;52.406;9.690;2024-01-11T09:40:29;-4.80;99.90
64634;DHT22;51043;52.406;9.690;2024-01-11T09:42:58;-4.80;99.90
64634;DHT22;51043;52.406;9.690;2024-01-11T09:45:27;-4.70;99.90
64634;DHT22;51043;52.406;9.690;2024-01-11T09:47:55;-4.70;99.90
64634;DHT22;51043;52.406;9.690;2024-01-11T09:50:24;-4.70;99.90
64634;DHT22;51043;52.406;9.690;2024-01-11T09:52:53;-4.60;99.90
64634;DHT22;51043;52.406;9.690;2024-01-11T09:55:21;-4.50;99.90
64634;DHT22;51043;52.406;9.690;2024-01-11T09:57:52;-4.40;99.90
64634;DHT22;51043;52.406;9.690;2024-01-11T10:00:24;-4.40;99.90
64634;DHT22;51043;52.406;9.690;2024-01-11T10:02:54;-4.40;99.90
64634;DHT22;51043;52.406;9.690;2024-01-11T10:05:23;-4.30;99.90
64634;DHT22;51043;52.406;9.690;2024-01-11T10:07:59;-4.30;99.90
64634;DHT22;51043;52.406;9.690;2024-01-11T10:10:43;-4.20;99.90
64634;DHT22;51043;52.406;9.690;2024-01-11T10:13:11;-4.00;99.90
64634;DHT22;51043;52.406;9.690;2024-01-11T10:15:39;-4.10;99.90
64634;DHT22;51043;52.406;9.690;2024-01-11T10:18:09;-4.00;99.90
64634;DHT22;51043;52.406;9.690;2024-01-11T10:20:37;-3.90;99.90
64634;DHT22;51043;52.406;9.690;2024-01-11T10:23:07;-3.80;99.90
64634;DHT22;51043;52.406;9.690;2024-01-11T10:25:36;-3.70;99.90
64634;DHT22;51043;52.406;9.690;2024-01-11T10:28:07;-3.80;99.90
64634;DHT22;51043;52.406;9.690;2024-01-11T10:30:35;-3.70;99.90
64634;DHT22;51043;52.406;9.690;2024-01-11T10:33:03;-3.80;99.90
64634;DHT22;51043;52.406;9.690;2024-01-11T10:35:35;-3.80;99.90
64634;DHT22;51043;52.406;9.690;2024-01-11T10:38:07;-3.80;99.90
64634;DHT22;51043;52.406;9.690;2024-01-11T10:40:37;-3.70;99.90
64634;DHT22;51043;52.406;9.690;2024-01-11T10:43:06;-3.60;99.90
64634;DHT22;51043;52.406;9.690;2024-01-11T10:45:38;-3.50;99.90
64634;DHT22;51043;52.406;9.690;2024-01-11T10:48:07;-3.30;99.90
64634;DHT22;51043;52.406;9.690;2024-01-11T10:50:44;-3.30;99.90
64634;DHT22;51043;52.406;9.690;2024-01-11T10:53:23;-3.20;99.90
64634;DHT22;51043;52.406;9.690;2024-01-11T10:55:55;-3.20;99.90
64634;DHT22;51043;52.406;9.690;2024-01-11T10:58:24;-3.20;99.90
64634;DHT22;51043;52.406;9.690;2024-01-11T11:00:54;-3.20;99.90
64634;DHT22;51043;52.406;9.690;2024-01-11T11:03:23;-3.30;99.90
64634;DHT22;51043;52.406;9.690;2024-01-11T11:05:55;-3.40;99.90
64634;DHT22;51043;52.406;9.690;2024-01-11T11:08:24;-3.30;99.90
64634;DHT22;51043;52.406;9.690;2024-01-11T11:10:55;-3.40;99.90
64634;DHT22;51043;52.406;9.690;2024-01-11T11:13:25;-3.30;99.90
64634;DHT22;51043;52.406;9.690;2024-01-11T11:15:53;-3.20;99.90
64634;DHT22;51043;52.406;9.690;2024-01-11T11:18:25;-3.10;99.90
64634;DHT22;51043;52.406;9.690;2024-01-11T11:20:55;-3.20;99.90
64634;DHT22;51043;52.406;9.690;2024-01-11T11:23:23;-3.20;99.90
64634;DHT22;51043;52.406;9.690;2024-01-11T11:25:54;-3.40;99.90
64634;DHT22;51043;52.406;9.690;2024-01-11T11:28:23;-3.00;99.90
64634;DHT22;51043;52.406;9.690;2024-01-11T11:30:52;-3.00;99.90
64634;DHT22;51043;52.406;9.690;2024-01-11T11:33:24;-3.00;99.90
64634;DHT22;51043;52.406;9.690;2024-01-11T11:35:57;-3.00;99.90
64634;DHT22;51043;52.406;9.690;2024-01-11T11:38:27;-3.00;99.90
64634;DHT22;51043;52.406;9.690;2024-01-11T11:40:58;-3.10;99.90
64634;DHT22;51043;52.406;9.690;2024-01-11T11:43:27;-3.00;99.90
64634;DHT22;51043;52.406;9.690;2024-01-11T11:45:56;-2.90;99.90
64634;DHT22;51043;52.406;9.690;2024-01-11T11:48:49;-2.90;99.90
64634;DHT22;51043;52.406;9.690;2024-01-11T11:51:22;-2.90;99.90
64634;DHT22;51043;52.406;9.690;2024-01-11T11:53:52;-2.80;99.90
64634;DHT22;51043;52.406;9.690;2024-01-11T11:56:23;-2.80;99.90
64634;DHT22;51043;52.406;9.690;2024-01-11T11:58:56;-2.80;99.90
64634;DHT22;51043;52.406;9.690;2024-01-11T12:01:24;-2.70;99.90
64634;DHT22;51043;52.406;9.690;2024-01-11T12:03:53;-2.70;99.90
64634;DHT22;51043;52.406;9.690;2024-01-11T12:06:24;-2.70;99.90
64634;DHT22;51043;52.406;9.690;2024-01-11T12:08:55;-2.60;99.90
64634;DHT22;51043;52.406;9.690;2024-01-11T12:11:24;-2.50;99.90
64634;DHT22;51043;52.406;9.690;2024-01-11T12:13:54;-2.50;99.90
64634;DHT22;51043;52.406;9.690;2024-01-11T12:16:25;-2.60;99.90
64634;DHT22;51043;52.406;9.690;2024-01-11T12:18:54;-2.60;99.90
64634;DHT22;51043;52.406;9.690;2024-01-11T12:21:26;-2.50;99.90
64634;DHT22;51043;52.406;9.690;2024-01-11T12:23:55;-2.50;99.90
64634;DHT22;51043;52.406;9.690;2024-01-11T12:26:24;-2.40;99.90
64634;DHT22;51043;52.406;9.690;2024-01-11T12:28:52;-2.40;99.90
64634;DHT22;51043;52.406;9.690;2024-01-11T12:31:21;-2.30;99.90
64634;DHT22;51043;52.406;9.690;2024-01-11T12:33:50;-2.20;99.90
64634;DHT22;51043;52.406;9.690;2024-01-11T12:36:18;-2.10;99.90
64634;DHT22;51043;52.406;9.690;2024-01-11T12:38:48;-2.10;99.90
64634;DHT22;51043;52.406;9.690;2024-01-11T12:41:17;-2.10;99.90
64634;DHT22;51043;52.406;9.690;2024-01-11T12:43:46;-1.90;99.90
64634;DHT22;51043;52.406;9.690;2024-01-11T12:46:15;-1.90;99.90
64634;DHT22;51043;52.406;9.690;2024-01-11T12:48:44;-1.90;99.90
64634;DHT22;51043;52.406;9.690;2024-01-11T12:51:12;-1.80;99.90
64634;DHT22;51043;52.406;9.690;2024-01-11T12:53:45;-1.80;99.90
64634;DHT22;51043;52.406;9.690;2024-01-11T12:56:16;-1.80;99.90
64634;DHT22;51043;52.406;9.690;2024-01-11T12:58:45;-1.70;99.90
64634;DHT22;51043;52.406;9.690;2024-01-11T13:01:16;-1.70;99.90
64634;DHT22;51043;52.406;9.690;2024-01-11T13:03:48;-1.80;99.90
64634;DHT22;51043;52.406;9.690;2024-01-11T13:06:17;-1.80;99.90
64634;DHT22;51043;52.406;9.690;2024-01-11T13:08:47;-1.80;99.90
64634;DHT22;51043;52.406;9.690;2024-01-11T13:11:17;-1.80;99.90
64634;DHT22;51043;52.406;9.690;2024-01-11T13:13:48;-1.80;99.90
64634;DHT22;51043;52.406;9.690;2024-01-11T13:16:16;-1.80;99.90
64634;DHT22;51043;52.406;9.690;2024-01-11T13:18:45;-1.80;99.90
64634;DHT22;51043;52.406;9.690;2024-01-11T13:21:14;-1.80;99.90
64634;DHT22;51043;52.406;9.690;2024-01-11T13:23:42;-1.80;99.90
64634;DHT22;51043;52.406;9.690;2024-01-11T13:26:10;-1.80;99.90
64634;DHT22;51043;52.406;9.690;2024-01-11T13:28:40;-1.80;99.90
64634;DHT22;51043;52.406;9.690;2024-01-11T13:31:08;-1.80;99.90
64634;DHT22;51043;52.406;9.690;2024-01-11T13:33:37;-1.80;99.90
64634;DHT22;51043;52.406;9.690;2024-01-11T13:36:06;-1.70;99.90
64634;DHT22;51043;52.406;9.690;2024-01-11T13:38:35;-1.60;99.90
64634;DHT22;51043;52.406;9.690;2024-01-11T13:41:04;-1.60;99.90
64634;DHT22;51043;52.406;9.690;2024-01-11T13:43:35;-1.60;99.90
64634;DHT22;51043;52.406;9.690;2024-01-11T13:46:04;-1.60;99.90
64634;DHT22;51043;52.406;9.690;2024-01-11T13:48:32;-1.60;99.90
64634;DHT22;51043;52.406;9.690;2024-01-11T13:51:01;-1.60;99.90
64634;DHT22;51043;52.406;9.690;2024-01-11T13:53:30;-1.50;99.90
64634;DHT22;51043;52.406;9.690;2024-01-11T13:56:03;-1.50;99.90
64634;DHT22;51043;52.406;9.690;2024-01-11T13:58:33;-1.40;99.90
64634;DHT22;51043;52.406;9.690;2024-01-11T14:01:04;-1.40;99.90
64634;DHT22;51043;52.406;9.690;2024-01-11T14:03:34;-1.40;99.90
64634;DHT22;51043;52.406;9.690;2024-01-11T14:06:03;-1.30;99.90
64634;DHT22;51043;52.406;9.690;2024-01-11T14:08:31;-1.30;99.90
64634;DHT22;51043;52.406;9.690;2024-01-11T14:10:59;-1.40;99.90
64634;DHT22;51043;52.406;9.690;2024-01-11T14:13:27;-1.40;99.90
64634;DHT22;51043;52.406;9.690;2024-01-11T14:15:55;-1.40;99.90
64634;DHT22;51043;52.406;9.690;2024-01-11T14:18:26;-1.40;99.90
64634;DHT22;51043;52.406;9.690;2024-01-11T14:20:55;-1.50;99.90
64634;DHT22;51043;52.406;9.690;2024-01-11T14:23:25;-1.50;99.90
64634;DHT22;51043;52.406;9.690;2024-01-11T14:25:53;-1.60;99.90
64634;DHT22;51043;52.406;9.690;2024-01-11T14:28:25;-1.50;99.90
64634;DHT22;51043;52.406;9.690;2024-01-11T14:30:55;-1.50;99.90
64634;DHT22;51043;52.406;9.690;2024-01-11T14:33:23;-1.50;99.90
64634;DHT22;51043;52.406;9.690;2024-01-11T14:35:53;-1.50;99.90
64634;DHT22;51043;52.406;9.690;2024-01-11T14:38:21;-1.50;99.90
64634;DHT22;51043;52.406;9.690;2024-01-11T14:40:54;-1.40;99.90
64634;DHT22;51043;52.406;9.690;2024-01-11T14:43:23;-1.40;99.90
64634;DHT22;51043;52.406;9.690;2024-01-11T14:45:51;-1.40;99.90
64634;DHT22;51043;52.406;9.690;2024-01-11T14:48:21;-1.40;99.90
64634;DHT22;51043;52.406;9.690;2024-01-11T14:50:51;-1.40;99.90
64634;DHT22;51043;52.406;9.690;2024-01-11T14:53:20;-1.40;99.90
64634;DHT22;51043;52.406;9.690;2024-01-11T14:55:48;-1.40;99.90
64634;DHT22;51043;52.406;9.690;2024-01-11T14:58:18;-1.40;99.90
64634;DHT22;51043;52.406;9.690;2024-01-11T15:00:47;-1.40;99.90
64634;DHT22;51043;52.406;9.690;2024-01-11T15:03:17;-1.70;99.90
64634;DHT22;51043;52.406;9.690;2024-01-11T15:05:46;-1.40;99.90
64634;DHT22;51043;52.406;9.690;2024-01-11T15:08:15;-1.40;99.90
64634;DHT22;51043;52.406;9.690;2024-01-11T15:10:43;-1.40;99.90
64634;DHT22;51043;52.406;9.690;2024-01-11T15:13:12;-1.40;99.90
64634;DHT22;51043;52.406;9.690;2024-01-11T15:15:40;-1.30;99.90
64634;DHT22;51043;52.406;9.690;2024-01-11T15:18:08;-1.40;99.90
64634;DHT22;51043;52.406;9.690;2024-01-11T15:20:36;-1.30;99.90
64634;DHT22;51043;52.406;9.690;2024-01-11T15:23:04;-1.30;99.90
64634;DHT22;51043;52.406;9.690;2024-01-11T15:25:34;-1.30;99.90
64634;DHT22;51043;52.406;9.690;2024-01-11T15:28:03;-1.30;99.90
64634;DHT22;51043;52.406;9.690;2024-01-11T15:30:31;-1.30;99.90
64634;DHT22;51043;52.406;9.690;2024-01-11T15:33:04;-1.30;99.90
64634;DHT22;51043;52.406;9.690;2024-01-11T15:35:36;-1.30;99.90
64634;DHT22;51043;52.406;9.690;2024-01-11T15:38:04;-1.30;99.90
64634;DHT22;51043;52.406;9.690;2024-01-11T15:40:34;-1.30;99.90
64634;DHT22;51043;52.406;9.690;2024-01-11T15:43:02;-1.20;99.90
64634;DHT22;51043;52.406;9.690;2024-01-11T15:45:34;-1.20;99.90
64634;DHT22;51043;52.406;9.690;2024-01-11T15:48:04;-1.20;99.90